Terminal Aerodrome Forecast
Issued by NWS

Home | Current Version | Previous Version | Text Only | Print | Product List | Glossary On
Versions: 1 2 3 4 5 6 7 8 9 10 11 12 13 14 15 16
000
FTUS43 KEAX 231700
TAFMKC
TAF
KMKC 231721Z 2318/2418 14014G20KT P6SM FEW120
     FM240830 15015KT 6SM TSRA SCT040 OVC080CB
     FM241300 30012KT P6SM SHRA OVC030=

USA.gov is the U.S. government's official web portal to all federal, state and local government web resources and services.